N541DF LLHZ-LLHZ

Flight info

Callsign N541DF
Flight time 0h 11m
Altitude 800
Route CVFR
Aircraft SR22/L-SDE/C

Departure

Time 2026-04-25 17:09
Airport Herzliya Airport (LLHZ)

Arrival

Time 2026-04-25 17:20
Airport Herzliya Airport (LLHZ)
Time Latitude Longitude Altitude Speed Heading
2026-04-25 17:06 32.17870 34.83818 121 ft 0 kts 110°
2026-04-25 17:08 32.17869 34.83824 121 ft 7 kts 97°
2026-04-25 17:08 32.17884 34.83858 121 ft 6 kts 44°
2026-04-25 17:08 32.17933 34.83789 120 ft 38 kts 290°
2026-04-25 17:08 32.18098 34.83224 176 ft 95 kts 288°
2026-04-25 17:09 32.18449 34.82576 585 ft 95 kts 349°
2026-04-25 17:09 32.19120 34.82832 898 ft 109 kts 40°
2026-04-25 17:09 32.19325 34.83638 994 ft 117 kts 103°
2026-04-25 17:09 32.18980 34.84598 989 ft 134 kts 116°
2026-04-25 17:10 32.18668 34.85229 880 ft 135 kts 129°
2026-04-25 17:10 32.17697 34.85195 697 ft 99 kts 231°
2026-04-25 17:10 32.17730 34.84464 356 ft 94 kts 295°
2026-04-25 17:10 32.17939 34.83767 127 ft 83 kts 288°
2026-04-25 17:11 32.18123 34.83139 145 ft 90 kts 288°
2026-04-25 17:11 32.18521 34.82602 541 ft 94 kts
2026-04-25 17:11 32.19183 34.82876 813 ft 111 kts 50°
2026-04-25 17:11 32.19248 34.83804 1050 ft 127 kts 104°
2026-04-25 17:12 32.18970 34.84830 1139 ft 134 kts 107°
2026-04-25 17:12 32.18363 34.85445 993 ft 114 kts 181°
2026-04-25 17:12 32.17667 34.85185 726 ft 97 kts 234°
2026-04-25 17:12 32.17729 34.84456 315 ft 97 kts 298°
2026-04-25 17:13 32.17942 34.83757 126 ft 82 kts 292°
2026-04-25 17:13 32.18002 34.83552 108 ft 75 kts 293°
2026-04-25 17:13 32.18472 34.82571 514 ft 87 kts
2026-04-25 17:13 32.19132 34.82715 812 ft 99 kts 25°
2026-04-25 17:14 32.19340 34.83537 917 ft 131 kts 100°
2026-04-25 17:14 32.19000 34.84622 873 ft 148 kts 116°
2026-04-25 17:14 32.18338 34.85382 857 ft 123 kts 174°
2026-04-25 17:14 32.17615 34.85117 513 ft 104 kts 241°
2026-04-25 17:15 32.17745 34.84418 297 ft 88 kts 292°
2026-04-25 17:15 32.17935 34.83777 125 ft 75 kts 292°
2026-04-25 17:15 32.18098 34.83218 114 ft 83 kts 288°
2026-04-25 17:15 32.18459 34.82650 384 ft 96 kts 354°
2026-04-25 17:16 32.19130 34.82893 601 ft 103 kts 29°
2026-04-25 17:16 32.19302 34.83649 780 ft 107 kts 104°
2026-04-25 17:16 32.19087 34.84527 877 ft 115 kts 101°
2026-04-25 17:16 32.18730 34.85404 736 ft 122 kts 149°
2026-04-25 17:17 32.17940 34.85325 627 ft 109 kts 200°
2026-04-25 17:17 32.17596 34.84774 445 ft 88 kts 296°
2026-04-25 17:17 32.17843 34.84103 193 ft 87 kts 290°
2026-04-25 17:17 32.18022 34.83491 105 ft 70 kts 291°
2026-04-25 17:18 32.18221 34.82799 225 ft 102 kts 288°
2026-04-25 17:18 32.18791 34.82617 545 ft 107 kts 18°
2026-04-25 17:18 32.19424 34.83083 881 ft 112 kts 72°
2026-04-25 17:18 32.19174 34.84010 938 ft 126 kts 116°
2026-04-25 17:19 32.18760 34.84910 765 ft 125 kts 116°
2026-04-25 17:19 32.18157 34.85480 690 ft 114 kts 194°
2026-04-25 17:19 32.17587 34.84928 537 ft 108 kts 270°
2026-04-25 17:19 32.17823 34.84165 232 ft 95 kts 290°
2026-04-25 17:20 32.18021 34.83498 106 ft 76 kts 293°
2026-04-25 17:20 32.18138 34.83105 96 ft 26 kts 288°
2026-04-25 17:20 32.18116 34.83064 97 ft 1 kts 158°